createdAt,value
2022-08-26T00:00:19.768Z,23.42
2022-08-26T00:02:49.255Z,23.42
2022-08-26T00:05:17.474Z,23.45
2022-08-26T00:07:45.796Z,23.43
2022-08-26T00:10:13.870Z,23.43
2022-08-26T00:12:42.506Z,23.39
2022-08-26T00:15:14.693Z,23.38
2022-08-26T00:17:43.013Z,23.32
2022-08-26T00:20:14.314Z,23.31
2022-08-26T00:22:42.379Z,23.24
2022-08-26T00:25:12.170Z,23.25
2022-08-26T00:27:40.446Z,23.22
2022-08-26T00:30:11.873Z,23.19
2022-08-26T00:32:40.008Z,23.19
2022-08-26T00:35:13.500Z,23.18
2022-08-26T00:37:42.695Z,23.19
2022-08-26T00:40:15.005Z,23.15
2022-08-26T00:42:46.032Z,23.15
2022-08-26T00:45:14.689Z,23.16
2022-08-26T00:47:47.039Z,23.08
2022-08-26T00:50:23.012Z,23.10
2022-08-26T00:52:51.701Z,23.09
2022-08-26T00:55:24.876Z,23.09
2022-08-26T00:58:03.361Z,23.04
2022-08-26T01:00:32.942Z,23.04
2022-08-26T01:03:03.145Z,22.99
2022-08-26T01:05:34.604Z,22.92
2022-08-26T01:08:03.685Z,22.94
2022-08-26T01:10:32.293Z,22.89
2022-08-26T01:13:04.142Z,22.90
2022-08-26T01:15:36.613Z,22.90
2022-08-26T01:18:05.858Z,22.86
2022-08-26T01:20:42.952Z,22.80
2022-08-26T01:23:13.197Z,22.82
2022-08-26T01:25:45.650Z,22.80
2022-08-26T01:28:17.659Z,22.87
2022-08-26T01:30:47.524Z,22.90
2022-08-26T01:33:20.282Z,22.92
2022-08-26T01:35:49.147Z,22.90
2022-08-26T01:38:19.217Z,22.92
2022-08-26T01:40:47.952Z,22.90
2022-08-26T01:43:22.953Z,22.91
2022-08-26T01:45:54.620Z,22.89
2022-08-26T01:48:29.789Z,22.83
2022-08-26T01:50:57.776Z,22.89
2022-08-26T01:53:27.903Z,22.91
2022-08-26T01:55:59.955Z,22.85
2022-08-26T01:58:33.953Z,22.86
2022-08-26T02:01:03.515Z,22.83
2022-08-26T02:03:32.897Z,22.81
2022-08-26T02:06:09.344Z,22.76
2022-08-26T02:08:42.821Z,22.75
2022-08-26T02:11:11.523Z,22.72
2022-08-26T02:13:42.826Z,22.67
2022-08-26T02:16:12.128Z,22.66
2022-08-26T02:18:43.090Z,22.66
2022-08-26T02:21:12.611Z,22.64
2022-08-26T02:23:42.631Z,22.63
2022-08-26T02:26:17.875Z,22.59
2022-08-26T02:28:55.375Z,22.51
2022-08-26T02:31:23.843Z,22.50
2022-08-26T02:33:51.891Z,22.46
2022-08-26T02:36:21.954Z,22.41
2022-08-26T02:38:52.071Z,22.36
2022-08-26T02:41:20.297Z,22.30
2022-08-26T02:43:51.131Z,22.34
2022-08-26T02:46:21.548Z,22.32
2022-08-26T02:48:58.024Z,22.27
2022-08-26T02:51:26.486Z,22.25
2022-08-26T02:53:55.912Z,22.23
2022-08-26T02:56:24.179Z,22.24
2022-08-26T02:58:52.309Z,22.23
2022-08-26T03:01:27.709Z,22.19
2022-08-26T03:03:57.106Z,22.17
2022-08-26T03:06:25.630Z,22.13
2022-08-26T03:08:55.809Z,22.10
2022-08-26T03:11:25.531Z,22.11
2022-08-26T03:13:56.568Z,22.12
2022-08-26T03:16:24.760Z,22.06
2022-08-26T03:19:01.134Z,22.14
2022-08-26T03:21:29.637Z,22.13
2022-08-26T03:23:59.497Z,22.10
2022-08-26T03:26:29.599Z,22.10
2022-08-26T03:29:15.620Z,22.08
2022-08-26T03:31:47.098Z,22.10
2022-08-26T03:34:15.505Z,22.06
2022-08-26T03:36:43.671Z,22.02
2022-08-26T03:39:14.481Z,21.99
2022-08-26T03:41:46.019Z,21.92
2022-08-26T03:44:14.616Z,21.94
2022-08-26T03:46:42.644Z,21.91
2022-08-26T03:49:12.190Z,21.92
2022-08-26T03:51:40.241Z,21.92
2022-08-26T03:54:10.607Z,21.88
2022-08-26T03:56:40.231Z,21.85
2022-08-26T03:59:08.251Z,21.76
2022-08-26T04:01:36.885Z,21.76
2022-08-26T04:04:06.506Z,21.74
2022-08-26T04:06:38.226Z,21.74
2022-08-26T04:09:09.342Z,21.68
2022-08-26T04:11:39.708Z,21.63
2022-08-26T04:14:09.947Z,21.66
2022-08-26T04:16:38.887Z,21.69
2022-08-26T04:19:07.417Z,21.73
2022-08-26T04:21:35.722Z,21.75
2022-08-26T04:24:04.233Z,21.74
2022-08-26T04:26:37.075Z,21.71
2022-08-26T04:29:11.844Z,21.73
2022-08-26T04:31:42.767Z,21.79
2022-08-26T04:34:11.712Z,21.76
2022-08-26T04:36:42.981Z,21.90
2022-08-26T04:39:14.940Z,21.83
2022-08-26T04:41:42.810Z,21.86
2022-08-26T04:44:12.660Z,21.84
2022-08-26T04:46:40.657Z,21.79
2022-08-26T04:49:12.626Z,21.83
2022-08-26T04:51:41.195Z,21.82
2022-08-26T04:54:14.096Z,21.73
2022-08-26T04:56:47.272Z,21.80
2022-08-26T04:59:19.410Z,21.79
2022-08-26T05:01:50.385Z,21.73
2022-08-26T05:04:20.501Z,21.75
2022-08-26T05:06:48.667Z,21.82
2022-08-26T05:09:18.457Z,21.81
2022-08-26T05:11:52.216Z,21.78
2022-08-26T05:14:23.086Z,21.75
2022-08-26T05:16:51.087Z,21.80
2022-08-26T05:19:19.648Z,21.83
2022-08-26T05:21:49.268Z,21.85
2022-08-26T05:24:18.045Z,21.92
2022-08-26T05:26:47.173Z,21.88
2022-08-26T05:29:16.719Z,21.89
2022-08-26T05:31:46.251Z,21.87
2022-08-26T05:34:15.415Z,21.89
2022-08-26T05:36:46.073Z,21.89
2022-08-26T05:39:14.187Z,21.90
2022-08-26T05:41:44.844Z,21.91
2022-08-26T05:44:15.295Z,21.88
2022-08-26T05:46:44.662Z,21.90
2022-08-26T05:49:16.541Z,21.91
2022-08-26T05:51:47.693Z,21.94
2022-08-26T05:54:21.237Z,21.92
2022-08-26T05:56:50.641Z,21.87
2022-08-26T05:59:23.911Z,21.84
2022-08-26T06:01:53.081Z,21.81
2022-08-26T06:04:24.874Z,21.83
2022-08-26T06:06:55.559Z,21.80
2022-08-26T06:09:23.591Z,21.80
2022-08-26T06:11:52.192Z,21.83
2022-08-26T06:14:21.756Z,21.90
2022-08-26T06:16:49.873Z,21.92
2022-08-26T06:19:19.527Z,21.88
2022-08-26T06:21:54.729Z,21.90
2022-08-26T06:24:41.484Z,21.88
2022-08-26T06:27:13.890Z,21.83
2022-08-26T06:29:44.310Z,21.76
2022-08-26T06:32:12.645Z,21.72
2022-08-26T06:34:41.813Z,21.82
2022-08-26T06:37:11.238Z,21.97
2022-08-26T06:39:41.228Z,22.06
2022-08-26T06:42:10.863Z,22.16
2022-08-26T06:44:44.658Z,22.18
2022-08-26T06:47:12.686Z,22.28
2022-08-26T06:49:42.770Z,22.50
2022-08-26T06:52:13.787Z,22.48
2022-08-26T06:54:48.026Z,22.36
2022-08-26T06:57:16.775Z,22.29
2022-08-26T06:59:44.766Z,22.25
2022-08-26T07:02:13.540Z,22.34
2022-08-26T07:04:42.105Z,22.28
2022-08-26T07:07:14.234Z,22.34
2022-08-26T07:09:43.793Z,22.51
2022-08-26T07:12:14.640Z,22.40
2022-08-26T07:14:47.441Z,22.55
2022-08-26T07:17:16.581Z,22.75
2022-08-26T07:19:44.486Z,22.83
2022-08-26T07:22:12.547Z,22.83
2022-08-26T07:24:42.455Z,22.88
2022-08-26T07:27:17.223Z,22.79
2022-08-26T07:29:46.104Z,22.76
2022-08-26T07:32:17.085Z,22.83
2022-08-26T07:34:46.893Z,22.91
2022-08-26T07:37:15.315Z,23.13
2022-08-26T07:39:47.619Z,23.34
2022-08-26T07:42:20.464Z,23.36
2022-08-26T07:44:56.297Z,23.30
2022-08-26T07:47:35.564Z,23.47
2022-08-26T07:50:03.763Z,23.56
2022-08-26T07:52:34.429Z,23.59
2022-08-26T07:55:04.441Z,23.53
2022-08-26T07:57:37.451Z,23.66
2022-08-26T08:00:14.104Z,23.95
2022-08-26T08:02:47.789Z,24.14
2022-08-26T08:05:21.304Z,24.22
2022-08-26T08:07:53.521Z,24.21
2022-08-26T08:10:30.073Z,24.28
2022-08-26T08:13:02.165Z,24.43
2022-08-26T08:15:33.159Z,24.35
2022-08-26T08:18:06.844Z,24.25
2022-08-26T08:21:04.796Z,24.41
2022-08-26T08:23:35.866Z,24.52
2022-08-26T08:26:05.558Z,24.94
2022-08-26T08:28:37.323Z,25.39
2022-08-26T08:31:08.764Z,25.67
2022-08-26T08:33:36.659Z,25.69
2022-08-26T08:36:09.746Z,25.47
2022-08-26T08:38:46.862Z,25.72
2022-08-26T08:41:45.024Z,25.76
2022-08-26T08:44:20.049Z,25.54
2022-08-26T08:46:53.608Z,25.41
2022-08-26T08:49:22.710Z,25.42
2022-08-26T08:51:56.534Z,25.33
2022-08-26T08:54:26.398Z,25.30
2022-08-26T08:57:02.817Z,25.23
2022-08-26T08:59:35.707Z,25.20
2022-08-26T09:02:14.760Z,25.20
2022-08-26T09:04:57.497Z,25.36
2022-08-26T09:07:36.754Z,25.42
2022-08-26T09:10:30.291Z,25.53
2022-08-26T09:12:58.899Z,25.57
2022-08-26T09:15:37.485Z,25.79
2022-08-26T09:18:18.504Z,25.92
2022-08-26T09:20:53.737Z,26.16
2022-08-26T09:23:24.240Z,26.39
2022-08-26T09:25:59.359Z,26.44
2022-08-26T09:28:31.086Z,26.48
2022-08-26T09:31:23.379Z,26.35
2022-08-26T09:34:07.214Z,26.50
2022-08-26T09:36:41.379Z,26.57
2022-08-26T09:39:29.421Z,26.53
2022-08-26T09:42:11.908Z,26.57
2022-08-26T09:44:57.182Z,26.61
2022-08-26T09:47:40.576Z,26.66
2022-08-26T09:50:23.551Z,26.74
2022-08-26T09:53:15.932Z,26.86
2022-08-26T09:55:47.647Z,26.91
2022-08-26T09:58:32.183Z,26.86
2022-08-26T10:01:02.353Z,26.90
2022-08-26T10:03:50.307Z,27.04
2022-08-26T10:06:28.525Z,27.11
2022-08-26T10:09:00.209Z,27.18
2022-08-26T10:11:38.285Z,27.33
2022-08-26T10:14:16.773Z,27.30
2022-08-26T10:16:54.496Z,27.34
2022-08-26T10:19:55.647Z,27.36
2022-08-26T10:22:21.958Z,27.45
2022-08-26T10:24:55.317Z,27.51
2022-08-26T10:27:37.504Z,27.66
2022-08-26T10:30:11.567Z,27.84
2022-08-26T10:32:43.151Z,28.04
2022-08-26T10:35:16.348Z,28.06
2022-08-26T10:37:47.839Z,28.09
2022-08-26T10:40:21.321Z,28.10
2022-08-26T10:42:56.397Z,28.17
2022-08-26T10:45:27.670Z,28.29
2022-08-26T10:48:07.775Z,28.48
2022-08-26T10:50:39.672Z,28.81
2022-08-26T10:53:18.051Z,28.88
2022-08-26T10:55:55.907Z,28.75
2022-08-26T10:58:35.941Z,28.87
2022-08-26T11:01:34.947Z,29.12
2022-08-26T11:04:17.989Z,29.26
2022-08-26T11:06:47.810Z,29.29
2022-08-26T11:09:50.142Z,29.29
2022-08-26T11:12:59.888Z,29.21
2022-08-26T11:16:10.301Z,29.07
2022-08-26T11:18:48.750Z,28.92
2022-08-26T11:21:49.562Z,28.81
2022-08-26T11:25:00.504Z,28.88
2022-08-26T11:27:59.536Z,29.13
2022-08-26T11:30:47.703Z,29.21
2022-08-26T11:33:54.653Z,29.10
2022-08-26T11:36:53.421Z,29.09
2022-08-26T11:39:25.872Z,29.19
2022-08-26T11:42:00.200Z,29.13
2022-08-26T11:44:39.598Z,29.15
2022-08-26T11:47:11.820Z,29.30
2022-08-26T11:49:39.951Z,29.53
2022-08-26T11:52:17.319Z,29.63
2022-08-26T11:55:06.498Z,29.67
2022-08-26T11:57:43.070Z,29.81
2022-08-26T12:00:16.815Z,29.91
2022-08-26T12:02:49.535Z,30.19
2022-08-26T12:05:29.576Z,30.23
2022-08-26T12:08:05.220Z,30.38
2022-08-26T12:10:37.831Z,30.56
2022-08-26T12:13:26.342Z,30.55
2022-08-26T12:15:59.862Z,30.45
2022-08-26T12:18:32.459Z,30.25
2022-08-26T12:21:03.187Z,30.25
2022-08-26T12:23:43.394Z,30.21
2022-08-26T12:26:21.846Z,30.17
2022-08-26T12:28:58.510Z,30.13
2022-08-26T12:31:30.316Z,30.10
2022-08-26T12:34:00.994Z,30.14
2022-08-26T12:36:42.340Z,30.02
2022-08-26T12:39:15.419Z,30.05
2022-08-26T12:41:50.918Z,30.15
2022-08-26T12:44:54.349Z,30.29
2022-08-26T12:47:30.957Z,29.99
2022-08-26T12:50:22.374Z,30.00
2022-08-26T12:53:00.504Z,29.87
2022-08-26T12:55:41.408Z,29.54
2022-08-26T12:58:28.944Z,29.57
2022-08-26T13:01:20.299Z,29.67
2022-08-26T13:03:56.110Z,29.88
2022-08-26T13:06:29.909Z,30.04
2022-08-26T13:09:00.244Z,30.25
2022-08-26T13:11:30.545Z,30.45
2022-08-26T13:14:01.064Z,30.64
2022-08-26T13:16:34.825Z,30.48
2022-08-26T13:19:10.102Z,30.40
2022-08-26T13:21:44.754Z,30.03
2022-08-26T13:24:15.370Z,29.83
2022-08-26T13:26:45.833Z,29.41
2022-08-26T13:29:18.303Z,29.05
2022-08-26T13:31:51.579Z,28.87
2022-08-26T13:34:21.215Z,28.62
2022-08-26T13:36:50.494Z,28.51
2022-08-26T13:39:19.072Z,28.55
2022-08-26T13:41:47.878Z,28.44
2022-08-26T13:44:27.400Z,28.61
2022-08-26T13:46:56.943Z,28.59
2022-08-26T13:49:37.641Z,28.45
2022-08-26T13:52:06.058Z,28.53
2022-08-26T13:54:41.546Z,28.52
2022-08-26T13:57:09.841Z,28.56
2022-08-26T13:59:37.867Z,28.75
2022-08-26T14:02:12.485Z,28.88
2022-08-26T14:04:40.560Z,28.88
2022-08-26T14:07:08.973Z,28.88
2022-08-26T14:09:38.464Z,28.95
2022-08-26T14:12:09.510Z,28.99
2022-08-26T14:14:37.655Z,29.14
2022-08-26T14:17:09.789Z,29.26
2022-08-26T14:19:38.247Z,29.26
2022-08-26T14:22:06.397Z,29.33
2022-08-26T14:24:52.294Z,29.57
2022-08-26T14:27:20.298Z,29.72
2022-08-26T14:29:48.539Z,29.77
2022-08-26T14:32:23.986Z,29.82
2022-08-26T14:34:52.302Z,29.52
2022-08-26T14:37:20.833Z,29.40
2022-08-26T14:39:52.970Z,29.55
2022-08-26T14:42:27.903Z,29.56
2022-08-26T14:45:03.115Z,29.80
2022-08-26T14:47:31.221Z,30.04
2022-08-26T14:50:02.127Z,30.36
2022-08-26T14:52:50.038Z,30.68
2022-08-26T14:55:18.892Z,30.79
2022-08-26T14:57:46.810Z,30.66
2022-08-26T15:00:15.734Z,30.60
2022-08-26T15:02:44.138Z,30.52
2022-08-26T15:05:13.202Z,30.29
2022-08-26T15:07:41.740Z,30.25
2022-08-26T15:10:13.929Z,30.29
2022-08-26T15:12:43.578Z,30.15
2022-08-26T15:15:18.537Z,29.87
2022-08-26T15:17:46.828Z,29.61
2022-08-26T15:20:17.509Z,29.45
2022-08-26T15:22:47.070Z,29.46
2022-08-26T15:25:15.986Z,29.52
2022-08-26T15:27:45.985Z,29.46
2022-08-26T15:30:14.462Z,29.38
2022-08-26T15:32:43.024Z,29.30
2022-08-26T15:35:11.743Z,29.36
2022-08-26T15:37:40.128Z,29.35
2022-08-26T15:40:09.860Z,29.24
2022-08-26T15:42:42.473Z,29.03
2022-08-26T15:45:12.597Z,28.98
2022-08-26T15:48:00.968Z,28.80
2022-08-26T15:50:30.155Z,28.63
2022-08-26T15:52:59.655Z,28.49
2022-08-26T15:55:28.300Z,28.43
2022-08-26T15:57:56.372Z,28.44
2022-08-26T16:00:27.148Z,28.41
2022-08-26T16:02:55.004Z,28.37
2022-08-26T16:05:23.037Z,28.29
2022-08-26T16:07:50.998Z,28.22
2022-08-26T16:10:22.190Z,28.11
2022-08-26T16:12:50.124Z,27.95
2022-08-26T16:15:23.844Z,27.85
2022-08-26T16:17:53.164Z,27.69
2022-08-26T16:20:21.236Z,27.65
2022-08-26T16:22:49.276Z,27.58
2022-08-26T16:25:19.565Z,27.47
2022-08-26T16:27:50.372Z,27.33
2022-08-26T16:30:19.378Z,27.37
2022-08-26T16:32:47.392Z,27.11
2022-08-26T16:35:19.355Z,26.95
2022-08-26T16:37:50.743Z,26.78
2022-08-26T16:40:19.157Z,26.63
2022-08-26T16:42:47.588Z,26.55
2022-08-26T16:45:18.636Z,26.41
2022-08-26T16:47:53.263Z,26.48
2022-08-26T16:50:24.295Z,26.43
2022-08-26T16:52:57.351Z,26.40
2022-08-26T16:55:27.348Z,26.04
2022-08-26T16:57:57.848Z,25.76
2022-08-26T17:00:31.870Z,25.65
2022-08-26T17:03:01.349Z,25.51
2022-08-26T17:05:33.314Z,25.05
2022-08-26T17:08:01.792Z,24.20
2022-08-26T17:10:31.200Z,23.58
2022-08-26T17:12:59.454Z,23.54
2022-08-26T17:15:29.645Z,23.56
2022-08-26T17:18:00.841Z,23.59
2022-08-26T17:20:30.433Z,23.62
2022-08-26T17:22:58.977Z,23.80
2022-08-26T17:25:28.694Z,24.01
2022-08-26T17:30:30.891Z,24.24
2022-08-26T17:32:59.048Z,24.35
2022-08-26T17:35:27.686Z,24.36
2022-08-26T17:38:04.600Z,24.36
2022-08-26T17:40:32.717Z,24.34
2022-08-26T17:43:00.717Z,24.31
2022-08-26T17:45:31.543Z,24.30
2022-08-26T17:48:06.556Z,24.09
2022-08-26T17:50:34.574Z,23.95
2022-08-26T17:53:04.191Z,23.89
2022-08-26T17:55:32.086Z,23.66
2022-08-26T17:58:03.940Z,23.58
2022-08-26T18:00:35.126Z,23.58
2022-08-26T18:03:03.248Z,23.55
2022-08-26T18:05:31.307Z,23.52
2022-08-26T18:07:59.254Z,23.51
2022-08-26T18:10:37.331Z,23.46
2022-08-26T18:13:05.998Z,23.47
2022-08-26T18:15:34.012Z,23.47
2022-08-26T18:18:02.037Z,23.46
2022-08-26T18:20:29.976Z,23.48
2022-08-26T18:22:57.948Z,23.48
2022-08-26T18:25:28.178Z,23.46
2022-08-26T18:27:56.180Z,23.48
2022-08-26T18:30:24.278Z,23.48
2022-08-26T18:32:53.263Z,23.44
2022-08-26T18:35:21.999Z,23.39
2022-08-26T18:37:53.029Z,23.40
2022-08-26T18:40:22.974Z,23.39
2022-08-26T18:42:54.106Z,23.41
2022-08-26T18:45:23.041Z,23.40
2022-08-26T18:47:51.043Z,23.39
2022-08-26T18:50:19.287Z,23.42
2022-08-26T18:52:47.228Z,23.41
2022-08-26T18:55:15.029Z,23.37
2022-08-26T18:57:51.702Z,23.30
2022-08-26T19:00:20.976Z,23.23
2022-08-26T19:02:52.079Z,23.21
2022-08-26T19:05:25.491Z,23.23
2022-08-26T19:07:53.393Z,23.20
2022-08-26T19:10:27.516Z,23.16
2022-08-26T19:13:00.663Z,23.10
2022-08-26T19:15:32.023Z,23.13
2022-08-26T19:17:59.987Z,23.16
2022-08-26T19:20:30.927Z,23.06
2022-08-26T19:23:05.856Z,23.01
2022-08-26T19:25:41.929Z,22.93
2022-08-26T19:28:10.232Z,22.85
2022-08-26T19:30:40.900Z,22.73
2022-08-26T19:33:09.997Z,22.87
2022-08-26T19:35:38.283Z,22.83
2022-08-26T19:38:06.558Z,22.79
2022-08-26T19:40:35.811Z,22.68
2022-08-26T19:43:03.992Z,22.71
2022-08-26T19:45:33.974Z,22.74
2022-08-26T19:48:08.615Z,22.68
2022-08-26T19:50:36.611Z,22.50
2022-08-26T19:53:05.314Z,22.29
2022-08-26T19:55:33.615Z,22.15
2022-08-26T19:58:01.593Z,22.16
2022-08-26T20:00:31.732Z,22.27
2022-08-26T20:03:00.519Z,22.38
2022-08-26T20:05:29.923Z,22.49
2022-08-26T20:07:57.807Z,22.50
2022-08-26T20:10:25.896Z,22.56
2022-08-26T20:12:53.916Z,22.43
2022-08-26T20:15:23.731Z,22.41
2022-08-26T20:17:52.505Z,22.48
2022-08-26T20:20:40.322Z,22.52
2022-08-26T20:23:10.035Z,22.53
2022-08-26T20:25:38.033Z,22.47
2022-08-26T20:28:06.268Z,22.48
2022-08-26T20:30:34.407Z,22.50
2022-08-26T20:33:02.374Z,22.55
2022-08-26T20:35:30.384Z,22.55
2022-08-26T20:37:58.295Z,22.55
2022-08-26T20:40:27.917Z,22.50
2022-08-26T20:42:55.974Z,22.53
2022-08-26T20:45:24.218Z,22.49
2022-08-26T20:47:52.540Z,22.46
2022-08-26T20:50:20.460Z,22.40
2022-08-26T20:52:48.327Z,22.33
2022-08-26T20:55:16.752Z,22.29
2022-08-26T20:57:46.090Z,22.23
2022-08-26T21:00:16.400Z,22.11
2022-08-26T21:02:46.025Z,22.08
2022-08-26T21:05:13.953Z,22.06
2022-08-26T21:07:41.964Z,22.05
2022-08-26T21:10:11.367Z,21.98
2022-08-26T21:12:39.360Z,21.91
2022-08-26T21:15:09.918Z,21.87
2022-08-26T21:17:37.868Z,21.82
2022-08-26T21:20:06.412Z,21.81
2022-08-26T21:22:34.403Z,21.79
2022-08-26T21:25:02.492Z,21.80
2022-08-26T21:27:30.425Z,21.76
2022-08-26T21:30:03.010Z,21.77
2022-08-26T21:32:33.903Z,21.76
2022-08-26T21:35:02.074Z,21.76
2022-08-26T21:37:30.288Z,21.69
2022-08-26T21:40:01.943Z,21.78
2022-08-26T21:42:33.386Z,21.80
2022-08-26T21:45:01.886Z,21.73
2022-08-26T21:47:32.698Z,21.65
2022-08-26T21:50:02.458Z,21.63
2022-08-26T21:52:30.324Z,21.54
2022-08-26T21:55:02.820Z,21.51
2022-08-26T21:57:31.057Z,21.47
2022-08-26T21:59:59.108Z,21.38
2022-08-26T22:02:27.278Z,21.45
2022-08-26T22:04:56.398Z,21.50
2022-08-26T22:07:25.697Z,21.48
2022-08-26T22:09:56.511Z,21.47
2022-08-26T22:12:27.060Z,21.42
2022-08-26T22:15:04.986Z,21.38
2022-08-26T22:17:32.919Z,21.45
2022-08-26T22:20:00.830Z,21.43
2022-08-26T22:22:30.053Z,21.42
2022-08-26T22:25:01.040Z,21.33
2022-08-26T22:27:29.323Z,21.32
2022-08-26T22:29:57.795Z,21.29
2022-08-26T22:32:25.743Z,21.25
2022-08-26T22:34:53.688Z,21.25
2022-08-26T22:37:24.352Z,21.26
2022-08-26T22:39:53.827Z,21.26
2022-08-26T22:42:22.415Z,21.19
2022-08-26T22:44:50.358Z,21.17
2022-08-26T22:47:18.582Z,21.18
2022-08-26T22:49:46.687Z,21.16
2022-08-26T22:52:14.536Z,21.13
2022-08-26T22:54:42.503Z,21.14
2022-08-26T22:57:12.085Z,21.13
2022-08-26T22:59:40.524Z,21.14
2022-08-26T23:02:11.110Z,21.14
2022-08-26T23:04:40.993Z,21.15
2022-08-26T23:07:08.957Z,21.10
2022-08-26T23:09:36.962Z,21.02
2022-08-26T23:12:05.869Z,21.00
2022-08-26T23:14:35.217Z,20.97
2022-08-26T23:17:03.350Z,20.96
2022-08-26T23:19:31.268Z,20.98
2022-08-26T23:21:59.149Z,20.97
2022-08-26T23:24:26.950Z,20.97
2022-08-26T23:26:54.863Z,20.88
2022-08-26T23:29:22.758Z,20.96
2022-08-26T23:31:53.141Z,20.91
2022-08-26T23:34:53.145Z,20.89
2022-08-26T23:37:21.160Z,20.84
2022-08-26T23:39:50.846Z,20.73
2022-08-26T23:42:18.886Z,20.76
2022-08-26T23:44:46.805Z,20.72
2022-08-26T23:47:16.312Z,20.72
2022-08-26T23:49:44.329Z,20.75
2022-08-26T23:52:30.525Z,20.78
2022-08-26T23:54:58.477Z,20.81
2022-08-26T23:57:27.133Z,20.79
2022-08-26T23:59:55.165Z,20.80
